Time;durP1;ratioP1;P1;durP2;ratioP2;P2;SDS_P1;SDS_P2;PMS_P1;PMS_P2;Temp;Humidity;BMP_temperature;BMP_pressure;BME280_temperature;BME280_humidity;BME280_pressure;Samples;Min_cycle;Max_cycle;Signal;HPM_P1;HPM_P2
2022/09/30 00:00:48;;;;;;;6.43;4.57;;;;;;;;;;6184570;23;20017;-91
2022/09/30 00:03:14;;;;;;;6.95;3.75;;;;;;;;;;6185115;23;20021;-91
2022/09/30 00:05:42;;;;;;;5.07;4.55;;;;;;;;;;6185154;23;20076;-91
2022/09/30 00:08:09;;;;;;;4.78;4.03;;;;;;;;;;6184550;23;20442;-90
2022/09/30 00:10:35;;;;;;;5.50;3.30;;;;;;;;;;6184668;23;20017;-91
2022/09/30 00:13:02;;;;;;;5.80;4.45;;;;;;;;;;6184761;23;20021;-93
2022/09/30 00:15:28;;;;;;;5.50;4.93;;;;;;;;;;6184874;23;20457;-93
2022/09/30 00:17:55;;;;;;;8.57;3.97;;;;;;;;;;6184550;23;20024;-93
2022/09/30 00:20:21;;;;;;;4.20;3.45;;;;;;;;;;6185038;23;20021;-93
2022/09/30 00:22:49;;;;;;;6.60;3.85;;;;;;;;;;6185183;23;20025;-93
2022/09/30 00:25:16;;;;;;;3.70;3.33;;;;;;;;;;6184803;23;20462;-92
2022/09/30 00:27:42;;;;;;;6.20;3.30;;;;;;;;;;6184943;23;20021;-92
2022/09/30 00:30:09;;;;;;;5.45;4.13;;;;;;;;;;6184969;23;20071;-94
2022/09/30 00:32:36;;;;;;;6.78;3.90;;;;;;;;;;6185023;23;20025;-93
2022/09/30 00:35:02;;;;;;;5.07;4.32;;;;;;;;;;6186880;23;20064;-93
2022/09/30 00:37:29;;;;;;;3.80;2.85;;;;;;;;;;6189729;23;20398;-93
2022/09/30 00:39:57;;;;;;;5.97;3.70;;;;;;;;;;6185356;23;20036;-93
2022/09/30 00:42:28;;;;;;;4.78;3.22;;;;;;;;;;6185504;23;20024;-93
2022/09/30 00:44:56;;;;;;;4.28;3.40;;;;;;;;;;6184815;23;20025;-93
2022/09/30 00:47:29;;;;;;;5.43;2.97;;;;;;;;;;6184887;23;20394;-93
2022/09/30 00:49:57;;;;;;;7.53;3.78;;;;;;;;;;6184845;23;20025;-92
2022/09/30 00:52:23;;;;;;;3.90;3.22;;;;;;;;;;6185137;23;20052;-93
2022/09/30 00:54:50;;;;;;;3.65;2.83;;;;;;;;;;6184685;23;20056;-93
2022/09/30 00:57:18;;;;;;;5.25;2.70;;;;;;;;;;6184949;23;20052;-93
2022/09/30 00:59:46;;;;;;;6.32;3.85;;;;;;;;;;6184943;23;20077;-93
2022/09/30 01:02:13;;;;;;;4.68;4.03;;;;;;;;;;6185344;23;20076;-93
2022/09/30 01:04:41;;;;;;;5.07;4.13;;;;;;;;;;6185437;23;20075;-93
2022/09/30 01:07:08;;;;;;;4.20;3.20;;;;;;;;;;6185218;23;20021;-94
2022/09/30 01:09:35;;;;;;;5.93;3.75;;;;;;;;;;6184725;23;20466;-93
2022/09/30 01:12:03;;;;;;;6.45;3.35;;;;;;;;;;6184911;23;20476;-93
2022/09/30 01:14:31;;;;;;;4.88;2.95;;;;;;;;;;6184521;23;20025;-93
2022/09/30 01:17:01;;;;;;;5.63;4.15;;;;;;;;;;6184466;23;20029;-93
2022/09/30 01:19:50;;;;;;;4.45;3.55;;;;;;;;;;6184530;23;20029;-93
2022/09/30 01:22:26;;;;;;;4.80;3.38;;;;;;;;;;6184643;23;20052;-92
2022/09/30 01:25:07;;;;;;;6.10;5.43;;;;;;;;;;6183803;23;20025;-92
2022/09/30 01:27:47;;;;;;;7.25;4.43;;;;;;;;;;6134878;23;20021;-93
2022/09/30 01:30:18;;;;;;;4.75;3.78;;;;;;;;;;6183952;23;20064;-93
2022/09/30 01:32:50;;;;;;;5.32;3.47;;;;;;;;;;6184852;23;20091;-93
2022/09/30 01:35:19;;;;;;;6.40;4.10;;;;;;;;;;6184416;23;20028;-93
2022/09/30 01:37:52;;;;;;;5.88;4.38;;;;;;;;;;6184496;23;20024;-92
2022/09/30 01:40:24;;;;;;;6.75;3.78;;;;;;;;;;6184212;23;20025;-94
2022/09/30 01:42:54;;;;;;;4.97;4.03;;;;;;;;;;6184297;23;20020;-92
2022/09/30 01:45:27;;;;;;;5.50;3.53;;;;;;;;;;6184213;23;20056;-93
2022/09/30 01:47:57;;;;;;;5.57;3.40;;;;;;;;;;6184313;23;20024;-93
2022/09/30 01:50:27;;;;;;;8.23;4.13;;;;;;;;;;6183911;23;20017;-93
2022/09/30 01:52:58;;;;;;;5.75;3.63;;;;;;;;;;6184232;23;20425;-95
2022/09/30 01:55:30;;;;;;;4.80;3.63;;;;;;;;;;6184918;23;20021;-94
2022/09/30 01:57:59;;;;;;;5.78;4.40;;;;;;;;;;6184974;23;20055;-95
2022/09/30 02:00:25;;;;;;;6.35;4.28;;;;;;;;;;6184723;23;20040;-94
2022/09/30 02:02:54;;;;;;;4.68;3.35;;;;;;;;;;6185430;23;20027;-94
2022/09/30 02:05:25;;;;;;;4.80;3.08;;;;;;;;;;6184724;23;20405;-92
2022/09/30 02:07:55;;;;;;;5.53;3.25;;;;;;;;;;6184358;23;20349;-91
2022/09/30 02:10:25;;;;;;;7.25;4.30;;;;;;;;;;6183765;23;20024;-93
2022/09/30 02:12:53;;;;;;;6.53;3.47;;;;;;;;;;6183765;23;20025;-91
2022/09/30 02:15:22;;;;;;;3.75;3.22;;;;;;;;;;6185309;23;20082;-95
2022/09/30 02:17:52;;;;;;;5.18;3.28;;;;;;;;;;6188031;23;20017;-96
2022/09/30 02:20:21;;;;;;;6.45;3.72;;;;;;;;;;6184241;23;20024;-93
2022/09/30 02:22:52;;;;;;;4.20;3.70;;;;;;;;;;6183841;23;20520;-93
2022/09/30 02:25:20;;;;;;;4.30;3.90;;;;;;;;;;6183660;23;20462;-94
2022/09/30 02:27:50;;;;;;;6.50;3.33;;;;;;;;;;6183896;23;20021;-93
2022/09/30 02:30:17;;;;;;;5.75;3.50;;;;;;;;;;6187777;23;20468;-95
2022/09/30 02:32:47;;;;;;;5.05;3.42;;;;;;;;;;6185621;23;20335;-96
2022/09/30 02:35:18;;;;;;;6.97;3.13;;;;;;;;;;6189855;23;20020;-96
2022/09/30 02:37:47;;;;;;;6.68;4.13;;;;;;;;;;6192975;23;20021;-95
2022/09/30 02:40:16;;;;;;;4.35;2.97;;;;;;;;;;6184579;23;20373;-95
2022/09/30 02:42:44;;;;;;;4.25;3.50;;;;;;;;;;6184259;23;20084;-96
2022/09/30 02:45:15;;;;;;;6.32;3.25;;;;;;;;;;6184320;23;20025;-94
2022/09/30 02:47:46;;;;;;;4.57;3.33;;;;;;;;;;6184673;23;20419;-96
2022/09/30 02:50:16;;;;;;;9.13;4.65;;;;;;;;;;6184721;23;20378;-94
2022/09/30 02:52:45;;;;;;;6.60;3.67;;;;;;;;;;6184004;23;20025;-94
2022/09/30 02:55:18;;;;;;;5.45;4.00;;;;;;;;;;6184196;23;20038;-96
2022/09/30 02:57:52;;;;;;;5.75;4.43;;;;;;;;;;6186338;23;20029;-96
2022/09/30 03:00:19;;;;;;;6.53;4.20;;;;;;;;;;6186285;23;20474;-96
2022/09/30 03:02:46;;;;;;;5.20;3.58;;;;;;;;;;6188090;23;20072;-96
2022/09/30 03:05:13;;;;;;;8.82;5.78;;;;;;;;;;6185426;23;20028;-94
2022/09/30 03:07:40;;;;;;;4.53;3.10;;;;;;;;;;6184333;23;20100;-94
2022/09/30 03:10:12;;;;;;;7.68;5.70;;;;;;;;;;6184111;23;20021;-94
2022/09/30 03:12:46;;;;;;;6.90;4.82;;;;;;;;;;6183292;23;20029;-93
2022/09/30 03:15:29;;;;;;;6.53;4.30;;;;;;;;;;6183122;23;20038;-92
2022/09/30 03:18:01;;;;;;;6.18;4.57;;;;;;;;;;6183409;23;20021;-93
2022/09/30 03:20:33;;;;;;;6.90;4.85;;;;;;;;;;6183246;23;20115;-95
2022/09/30 03:23:09;;;;;;;8.40;5.30;;;;;;;;;;6185033;23;20024;-94
2022/09/30 03:25:38;;;;;;;5.75;3.95;;;;;;;;;;6185688;23;20021;-92
2022/09/30 03:28:08;;;;;;;6.70;4.47;;;;;;;;;;6185256;23;20028;-93
2022/09/30 03:30:39;;;;;;;5.57;4.40;;;;;;;;;;6185542;23;20029;-94
2022/09/30 03:33:08;;;;;;;7.50;4.13;;;;;;;;;;6185601;23;20280;-93
2022/09/30 03:35:41;;;;;;;7.80;6.40;;;;;;;;;;6185490;23;20095;-93
2022/09/30 03:38:14;;;;;;;5.63;4.05;;;;;;;;;;6185546;23;20049;-95
2022/09/30 03:40:43;;;;;;;13.55;5.60;;;;;;;;;;6187794;23;20389;-96
2022/09/30 03:43:17;;;;;;;6.25;4.03;;;;;;;;;;6187025;23;20458;-96
2022/09/30 03:45:46;;;;;;;5.82;4.40;;;;;;;;;;6187191;23;20025;-96
2022/09/30 03:48:14;;;;;;;9.38;4.20;;;;;;;;;;6186956;23;20052;-96
2022/09/30 03:50:41;;;;;;;5.47;3.72;;;;;;;;;;6187238;23;20397;-95
2022/09/30 03:53:09;;;;;;;7.25;4.60;;;;;;;;;;6186073;23;20025;-94
2022/09/30 03:55:43;;;;;;;8.10;5.75;;;;;;;;;;6186092;23;20048;-95
2022/09/30 03:58:10;;;;;;;7.45;4.65;;;;;;;;;;6185486;23;20457;-94
2022/09/30 04:00:38;;;;;;;7.80;5.35;;;;;;;;;;6187080;23;20484;-95
2022/09/30 04:03:05;;;;;;;13.00;6.55;;;;;;;;;;6187027;23;20017;-95
2022/09/30 04:05:32;;;;;;;9.85;5.07;;;;;;;;;;6185488;23;20035;-96
2022/09/30 04:07:58;;;;;;;9.98;6.68;;;;;;;;;;6185415;23;20028;-95
2022/09/30 04:10:25;;;;;;;12.75;4.78;;;;;;;;;;6186570;23;20331;-96
2022/09/30 04:12:53;;;;;;;6.95;4.78;;;;;;;;;;6194000;23;20025;-96
2022/09/30 04:15:20;;;;;;;10.43;5.30;;;;;;;;;;6200929;23;20100;-95
2022/09/30 04:17:48;;;;;;;9.57;6.38;;;;;;;;;;6187425;23;20021;-93
2022/09/30 04:20:14;;;;;;;9.63;4.75;;;;;;;;;;6187147;23;20017;-94
2022/09/30 04:22:41;;;;;;;9.63;6.07;;;;;;;;;;6186115;23;20021;-94
2022/09/30 04:25:08;;;;;;;10.40;7.18;;;;;;;;;;6186435;23;20032;-96
2022/09/30 04:27:35;;;;;;;19.67;5.88;;;;;;;;;;6190749;23;20044;-96
2022/09/30 04:32:36;;;;;;;8.57;5.40;;;;;;;;;;6195323;23;20016;-95
2022/09/30 04:35:05;;;;;;;15.38;5.68;;;;;;;;;;6222107;23;20032;-96
2022/09/30 04:37:31;;;;;;;7.22;5.63;;;;;;;;;;6220232;23;20016;-95
2022/09/30 04:39:58;;;;;;;14.32;4.50;;;;;;;;;;6221799;23;20020;-96
2022/09/30 04:42:25;;;;;;;9.23;4.85;;;;;;;;;;6221066;23;20024;-96
2022/09/30 04:44:52;;;;;;;13.52;6.22;;;;;;;;;;6216684;23;20027;-94
2022/09/30 04:47:18;;;;;;;16.63;5.00;;;;;;;;;;6215601;23;20465;-95
2022/09/30 04:49:45;;;;;;;9.10;5.18;;;;;;;;;;6215451;23;20453;-95
2022/09/30 04:52:13;;;;;;;8.32;5.18;;;;;;;;;;6215388;23;20071;-95
2022/09/30 04:54:40;;;;;;;9.98;4.57;;;;;;;;;;6216220;23;20025;-96
2022/09/30 04:57:06;;;;;;;11.13;5.45;;;;;;;;;;6217602;23;20021;-95
2022/09/30 04:59:33;;;;;;;8.80;5.15;;;;;;;;;;6217139;23;20454;-96
2022/09/30 05:02:01;;;;;;;6.68;4.88;;;;;;;;;;6216293;23;20530;-96
2022/09/30 05:04:27;;;;;;;14.50;4.38;;;;;;;;;;6215975;23;20095;-95
2022/09/30 05:06:54;;;;;;;5.95;3.90;;;;;;;;;;6215209;23;20027;-92
2022/09/30 05:09:22;;;;;;;7.03;4.22;;;;;;;;;;6215185;23;20020;-94
2022/09/30 05:11:48;;;;;;;12.00;4.85;;;;;;;;;;6215075;23;20028;-95
2022/09/30 05:14:15;;;;;;;15.35;6.88;;;;;;;;;;6216076;23;20425;-96
2022/09/30 05:16:42;;;;;;;8.45;4.50;;;;;;;;;;6214746;23;20024;-95
2022/09/30 05:19:08;;;;;;;12.13;5.18;;;;;;;;;;6215664;23;20067;-96
2022/09/30 05:21:35;;;;;;;11.73;4.65;;;;;;;;;;6215589;23;20071;-95
2022/09/30 05:24:01;;;;;;;6.25;4.68;;;;;;;;;;6215233;23;20016;-94
2022/09/30 05:26:29;;;;;;;6.57;3.75;;;;;;;;;;6215682;23;20384;-94
2022/09/30 05:28:56;;;;;;;9.15;6.05;;;;;;;;;;6215309;23;20024;-94
2022/09/30 05:31:22;;;;;;;6.88;4.50;;;;;;;;;;6215405;23;20404;-94
2022/09/30 05:33:49;;;;;;;8.27;5.43;;;;;;;;;;6214864;23;20024;-94
2022/09/30 05:36:15;;;;;;;10.10;5.63;;;;;;;;;;6215170;23;20024;-94
2022/09/30 05:38:42;;;;;;;7.53;5.60;;;;;;;;;;6214664;23;20024;-93
2022/09/30 05:41:10;;;;;;;5.63;4.70;;;;;;;;;;6214673;23;20024;-92
2022/09/30 05:43:39;;;;;;;8.18;6.05;;;;;;;;;;6214894;23;20025;-92
2022/09/30 05:46:05;;;;;;;7.90;4.47;;;;;;;;;;6214226;23;20052;-92
2022/09/30 05:48:32;;;;;;;6.25;5.50;;;;;;;;;;6214588;23;20024;-93
2022/09/30 05:51:00;;;;;;;5.13;4.10;;;;;;;;;;6214763;23;20048;-92
2022/09/30 05:53:27;;;;;;;6.40;4.65;;;;;;;;;;6214002;23;20021;-92
2022/09/30 05:55:53;;;;;;;10.00;3.97;;;;;;;;;;6215008;23;20024;-92
2022/09/30 05:58:21;;;;;;;5.97;3.80;;;;;;;;;;6214102;23;20076;-90
2022/09/30 06:00:49;;;;;;;7.60;4.82;;;;;;;;;;6214255;23;20055;-93
2022/09/30 06:03:16;;;;;;;7.50;4.80;;;;;;;;;;6214414;23;20016;-90
2022/09/30 06:05:44;;;;;;;6.78;5.38;;;;;;;;;;6214333;23;20032;-91
2022/09/30 06:08:10;;;;;;;8.18;4.90;;;;;;;;;;6213851;23;20032;-92
2022/09/30 06:10:40;;;;;;;5.53;4.97;;;;;;;;;;6213991;23;20027;-92
2022/09/30 06:13:07;;;;;;;7.78;5.05;;;;;;;;;;6214235;23;20043;-92
2022/09/30 06:15:36;;;;;;;6.00;4.90;;;;;;;;;;6214053;23;20060;-92
2022/09/30 06:18:05;;;;;;;7.10;4.78;;;;;;;;;;6214458;23;20025;-94
2022/09/30 06:20:31;;;;;;;5.88;4.40;;;;;;;;;;6214474;23;20021;-91
2022/09/30 06:22:59;;;;;;;6.25;4.85;;;;;;;;;;6214221;23;20061;-93
2022/09/30 06:25:25;;;;;;;5.13;3.40;;;;;;;;;;6214479;23;20020;-91
2022/09/30 06:27:52;;;;;;;6.05;4.95;;;;;;;;;;6214433;23;20021;-93
2022/09/30 06:30:18;;;;;;;9.43;6.15;;;;;;;;;;6214503;23;20071;-91
2022/09/30 06:32:45;;;;;;;7.38;6.63;;;;;;;;;;6213827;23;20638;-92
2022/09/30 06:35:13;;;;;;;6.07;5.18;;;;;;;;;;6214109;23;20082;-92
2022/09/30 06:37:40;;;;;;;7.28;6.43;;;;;;;;;;6213356;23;20021;-91
2022/09/30 06:40:07;;;;;;;9.27;4.57;;;;;;;;;;6213836;23;20075;-91
2022/09/30 06:42:34;;;;;;;7.05;5.40;;;;;;;;;;6213628;23;20024;-91
2022/09/30 06:45:00;;;;;;;6.32;4.95;;;;;;;;;;6213810;23;20032;-91
2022/09/30 06:47:27;;;;;;;8.40;5.60;;;;;;;;;;6213239;23;20024;-91
2022/09/30 06:49:57;;;;;;;10.93;9.77;;;;;;;;;;6213104;23;20389;-92
2022/09/30 06:52:26;;;;;;;7.78;5.65;;;;;;;;;;6213270;23;20454;-92
2022/09/30 06:54:55;;;;;;;10.15;6.57;;;;;;;;;;6213326;23;20488;-91
2022/09/30 06:57:23;;;;;;;7.53;5.78;;;;;;;;;;6214636;23;20056;-92
2022/09/30 06:59:50;;;;;;;9.57;6.22;;;;;;;;;;6215547;23;20091;-92
2022/09/30 07:02:17;;;;;;;7.78;6.38;;;;;;;;;;6215378;23;20075;-92
2022/09/30 07:04:43;;;;;;;9.88;5.93;;;;;;;;;;6215764;23;20024;-92
2022/09/30 07:07:10;;;;;;;7.57;6.30;;;;;;;;;;6215631;23;20020;-91
2022/09/30 07:09:38;;;;;;;8.07;6.13;;;;;;;;;;6215285;23;20066;-91
2022/09/30 07:12:05;;;;;;;9.27;5.57;;;;;;;;;;6215233;23;20025;-91
2022/09/30 07:14:32;;;;;;;7.05;6.32;;;;;;;;;;6215362;23;20029;-91
2022/09/30 07:17:02;;;;;;;6.15;4.93;;;;;;;;;;6215022;23;20397;-91
2022/09/30 07:19:29;;;;;;;10.18;7.45;;;;;;;;;;6215392;23;20065;-92
2022/09/30 07:21:55;;;;;;;9.38;6.03;;;;;;;;;;6215388;23;20020;-91
2022/09/30 07:24:22;;;;;;;6.15;5.55;;;;;;;;;;6215025;23;20029;-90
2022/09/30 07:26:49;;;;;;;7.93;7.22;;;;;;;;;;6214825;23;20054;-92
2022/09/30 07:29:16;;;;;;;5.65;4.95;;;;;;;;;;6215453;23;20025;-91
2022/09/30 07:31:43;;;;;;;6.57;5.07;;;;;;;;;;6215695;23;20063;-90
2022/09/30 07:34:09;;;;;;;6.55;5.10;;;;;;;;;;6214604;23;20067;-90
2022/09/30 07:36:37;;;;;;;6.22;4.57;;;;;;;;;;6214685;23;20107;-89
2022/09/30 07:39:05;;;;;;;9.45;5.82;;;;;;;;;;6215226;23;20100;-89
2022/09/30 07:41:31;;;;;;;7.22;5.53;;;;;;;;;;6214651;23;20054;-89
2022/09/30 07:43:59;;;;;;;8.88;6.70;;;;;;;;;;6215158;23;20024;-90
2022/09/30 07:46:28;;;;;;;9.05;5.57;;;;;;;;;;6214994;23;20029;-89
2022/09/30 07:48:56;;;;;;;9.20;7.22;;;;;;;;;;6214745;23;20023;-90
2022/09/30 07:51:24;;;;;;;9.45;8.00;;;;;;;;;;6214761;23;20021;-91
2022/09/30 07:53:51;;;;;;;9.98;6.57;;;;;;;;;;6215085;23;20032;-89
2022/09/30 07:56:18;;;;;;;11.68;7.78;;;;;;;;;;6214890;23;20025;-91
2022/09/30 07:58:45;;;;;;;11.52;8.30;;;;;;;;;;6214669;23;20104;-91
2022/09/30 08:01:13;;;;;;;12.32;6.88;;;;;;;;;;6214693;23;20549;-90
2022/09/30 08:03:41;;;;;;;9.32;6.75;;;;;;;;;;6214623;23;20024;-91
2022/09/30 08:06:08;;;;;;;11.25;8.43;;;;;;;;;;6215008;23;20025;-89
2022/09/30 08:08:34;;;;;;;9.40;7.70;;;;;;;;;;6214708;23;20086;-91
2022/09/30 08:11:01;;;;;;;7.63;6.10;;;;;;;;;;6214377;23;20024;-90
2022/09/30 08:13:27;;;;;;;7.90;5.30;;;;;;;;;;6214578;23;20029;-91
2022/09/30 08:15:54;;;;;;;12.23;6.53;;;;;;;;;;6215026;23;20028;-90
2022/09/30 08:18:22;;;;;;;9.85;8.50;;;;;;;;;;6214527;23;20393;-90
2022/09/30 08:20:49;;;;;;;14.60;8.55;;;;;;;;;;6214463;23;20021;-91
2022/09/30 08:23:15;;;;;;;10.80;7.13;;;;;;;;;;6214408;23;20454;-91
2022/09/30 08:25:42;;;;;;;9.38;6.65;;;;;;;;;;6214485;23;20078;-92
2022/09/30 08:28:08;;;;;;;8.93;6.20;;;;;;;;;;6214578;23;20025;-90
2022/09/30 08:30:35;;;;;;;9.02;5.80;;;;;;;;;;6215922;23;20458;-91
2022/09/30 08:33:01;;;;;;;7.65;5.57;;;;;;;;;;6216501;23;20082;-91
2022/09/30 08:35:29;;;;;;;9.43;5.35;;;;;;;;;;6216144;23;20393;-91
2022/09/30 08:37:56;;;;;;;6.82;5.10;;;;;;;;;;6214214;23;20083;-90
2022/09/30 08:40:24;;;;;;;6.10;4.88;;;;;;;;;;6214462;23;20032;-91
2022/09/30 08:43:08;;;;;;;7.82;7.05;;;;;;;;;;6214604;23;20028;-91
2022/09/30 08:45:38;;;;;;;6.65;5.80;;;;;;;;;;6213972;23;20033;-90
2022/09/30 08:48:12;;;;;;;4.85;4.20;;;;;;;;;;6214032;23;20552;-90
2022/09/30 08:50:47;;;;;;;5.00;4.55;;;;;;;;;;6214516;23;20021;-91
2022/09/30 08:53:18;;;;;;;5.13;4.72;;;;;;;;;;6214530;23;20024;-91
2022/09/30 08:55:45;;;;;;;6.43;5.93;;;;;;;;;;6214523;23;20028;-91
2022/09/30 08:58:16;;;;;;;4.00;3.65;;;;;;;;;;6213985;23;20400;-90
2022/09/30 09:00:43;;;;;;;5.30;4.90;;;;;;;;;;6214136;23;20021;-91
2022/09/30 09:03:11;;;;;;;3.70;3.42;;;;;;;;;;6214287;23;20078;-90
2022/09/30 09:05:45;;;;;;;3.70;3.38;;;;;;;;;;6214327;23;20083;-90
2022/09/30 09:08:16;;;;;;;4.93;4.53;;;;;;;;;;6214044;23;20470;-91
2022/09/30 09:10:45;;;;;;;3.17;2.90;;;;;;;;;;6213992;23;20401;-90
2022/09/30 09:13:19;;;;;;;4.90;4.18;;;;;;;;;;6214415;23;20024;-90
2022/09/30 09:15:50;;;;;;;3.97;2.40;;;;;;;;;;6213988;23;20021;-89
2022/09/30 09:18:27;;;;;;;5.20;3.97;;;;;;;;;;6214239;23;20020;-90
2022/09/30 09:20:55;;;;;;;3.83;3.47;;;;;;;;;;6213456;23;20543;-91
2022/09/30 09:23:23;;;;;;;4.25;3.35;;;;;;;;;;6213745;23;20527;-90
2022/09/30 09:25:51;;;;;;;3.85;2.97;;;;;;;;;;6214224;23;20075;-90
2022/09/30 09:28:24;;;;;;;3.63;3.38;;;;;;;;;;6213827;23;20032;-91
2022/09/30 09:30:54;;;;;;;3.53;3.30;;;;;;;;;;6213889;23;20458;-92
2022/09/30 09:33:24;;;;;;;3.17;2.92;;;;;;;;;;6214118;23;20017;-91
2022/09/30 09:35:50;;;;;;;;;;;;;;;;;;6214327;23;20024;-91
2022/09/30 09:38:28;;;;;;;3.30;2.55;;;;;;;;;;6214093;23;19985;-91
2022/09/30 09:41:05;;;;;;;2.80;2.50;;;;;;;;;;6213742;23;20021;-92
2022/09/30 09:43:42;;;;;;;3.83;3.50;;;;;;;;;;6213922;23;20404;-90
2022/09/30 09:46:12;;;;;;;3.22;2.92;;;;;;;;;;6213949;23;20025;-91
2022/09/30 09:48:38;;;;;;;6.57;5.80;;;;;;;;;;6213775;23;20032;-92
2022/09/30 09:51:10;;;;;;;3.78;2.58;;;;;;;;;;6213617;23;20028;-91
2022/09/30 09:53:47;;;;;;;3.90;2.47;;;;;;;;;;6214280;23;20020;-91
2022/09/30 09:56:18;;;;;;;3.45;2.60;;;;;;;;;;6214167;23;20021;-91
2022/09/30 09:59:04;;;;;;;4.82;4.47;;;;;;;;;;6213844;23;20025;-91
2022/09/30 10:01:34;;;;;;;3.65;3.35;;;;;;;;;;6213879;23;20090;-91
2022/09/30 10:04:01;;;;;;;;;;;;;;;;;;6213942;23;20112;-91
2022/09/30 10:06:41;;;;;;;2.78;2.58;;;;;;;;;;6214016;23;19982;-91
2022/09/30 10:09:20;;;;;;;3.33;3.10;;;;;;;;;;6213675;23;20356;-91
2022/09/30 10:11:48;;;;;;;3.38;3.17;;;;;;;;;;6213738;23;20021;-91
2022/09/30 10:14:17;;;;;;;3.47;3.17;;;;;;;;;;6213888;23;20024;-92
2022/09/30 10:16:44;;;;;;;3.83;3.53;;;;;;;;;;6213594;23;20078;-92
2022/09/30 10:19:18;;;;;;;5.25;4.90;;;;;;;;;;6213961;23;20021;-91
2022/09/30 10:21:44;;;;;;;6.18;5.68;;;;;;;;;;6213730;23;20071;-92
2022/09/30 10:24:19;;;;;;;6.10;5.80;;;;;;;;;;6213735;23;20536;-91
2022/09/30 10:26:46;;;;;;;6.32;5.78;;;;;;;;;;6213963;23;20021;-91
2022/09/30 10:29:25;;;;;;;3.60;3.38;;;;;;;;;;6213798;23;20029;-91
2022/09/30 10:31:52;;;;;;;4.13;3.83;;;;;;;;;;6215207;23;20099;-92
2022/09/30 10:34:25;;;;;;;5.28;4.85;;;;;;;;;;6215413;23;20401;-91
2022/09/30 10:36:52;;;;;;;5.43;5.13;;;;;;;;;;6215215;23;20331;-91
2022/09/30 10:39:22;;;;;;;8.88;8.20;;;;;;;;;;6215430;23;20400;-92
2022/09/30 10:41:48;;;;;;;;;;;;;;;;;;6216387;23;20029;-92
2022/09/30 10:44:16;;;;;;;3.47;3.08;;;;;;;;;;6215528;23;19966;-92
2022/09/30 10:46:45;;;;;;;4.35;4.13;;;;;;;;;;6215683;23;20327;-90
2022/09/30 10:49:20;;;;;;;4.43;3.85;;;;;;;;;;6215669;23;20029;-89
2022/09/30 10:51:47;;;;;;;3.80;3.50;;;;;;;;;;6215733;23;20017;-90
2022/09/30 10:54:34;;;;;;;4.93;4.43;;;;;;;;;;6215806;23;20021;-91
2022/09/30 10:57:02;;;;;;;3.80;3.45;;;;;;;;;;6215487;23;20043;-90
2022/09/30 10:59:31;;;;;;;4.70;4.40;;;;;;;;;;6215535;23;20027;-91
2022/09/30 11:02:04;;;;;;;5.85;4.15;;;;;;;;;;6215193;23;20079;-91
2022/09/30 11:04:34;;;;;;;4.22;3.88;;;;;;;;;;6215530;23;20082;-89
2022/09/30 11:07:04;;;;;;;5.35;5.05;;;;;;;;;;6215147;23;20465;-90
2022/09/30 11:09:34;;;;;;;9.00;8.60;;;;;;;;;;6215068;23;20330;-90
2022/09/30 11:12:04;;;;;;;3.47;2.88;;;;;;;;;;6215382;23;20020;-91
2022/09/30 11:14:35;;;;;;;5.60;4.75;;;;;;;;;;6215063;23;20461;-91
2022/09/30 11:17:10;;;;;;;4.18;3.97;;;;;;;;;;6215656;23;20078;-91
2022/09/30 11:19:40;;;;;;;5.53;4.82;;;;;;;;;;6215220;23;20327;-90
2022/09/30 11:22:18;;;;;;;3.97;3.60;;;;;;;;;;6215336;23;20024;-90
2022/09/30 11:24:45;;;;;;;3.90;3.70;;;;;;;;;;6215002;23;20082;-91
2022/09/30 11:27:16;;;;;;;3.95;3.65;;;;;;;;;;6215317;23;20024;-90
2022/09/30 11:29:51;;;;;;;4.53;4.22;;;;;;;;;;6215284;23;20432;-91
2022/09/30 11:32:30;;;;;;;3.97;3.67;;;;;;;;;;6214787;23;20524;-90
2022/09/30 11:35:03;;;;;;;3.55;3.25;;;;;;;;;;6214918;23;20081;-91
2022/09/30 11:37:35;;;;;;;3.85;3.53;;;;;;;;;;6215099;23;20029;-90
2022/09/30 11:40:11;;;;;;;5.00;4.60;;;;;;;;;;6215175;23;20095;-91
2022/09/30 11:42:40;;;;;;;4.00;3.70;;;;;;;;;;6214845;23;20397;-90
2022/09/30 11:45:14;;;;;;;5.20;4.13;;;;;;;;;;6215293;23;20075;-90
2022/09/30 11:47:47;;;;;;;3.40;3.15;;;;;;;;;;6215042;23;20036;-90
2022/09/30 11:50:28;;;;;;;4.57;4.25;;;;;;;;;;6215045;23;20028;-91
2022/09/30 11:52:58;;;;;;;5.88;5.53;;;;;;;;;;6214467;23;20021;-91
2022/09/30 11:55:32;;;;;;;8.02;7.63;;;;;;;;;;6214638;23;20393;-90
2022/09/30 11:58:01;;;;;;;4.70;4.50;;;;;;;;;;6214704;23;20024;-90
2022/09/30 12:00:28;;;;;;;4.05;3.75;;;;;;;;;;6214907;23;20063;-90
2022/09/30 12:03:00;;;;;;;3.35;3.08;;;;;;;;;;6214809;23;20067;-90
2022/09/30 12:05:28;;;;;;;3.33;3.03;;;;;;;;;;6214595;23;20059;-90
2022/09/30 12:07:58;;;;;;;2.58;2.38;;;;;;;;;;6214873;23;20024;-89
2022/09/30 12:10:27;;;;;;;4.18;3.88;;;;;;;;;;6214941;23;20074;-90
2022/09/30 12:12:55;;;;;;;3.83;3.53;;;;;;;;;;6214731;23;20032;-90
2022/09/30 12:15:25;;;;;;;3.42;3.13;;;;;;;;;;6215447;23;20024;-89
2022/09/30 12:17:57;;;;;;;4.80;4.55;;;;;;;;;;6216205;23;20435;-91
2022/09/30 12:20:26;;;;;;;3.53;3.22;;;;;;;;;;6215411;23;20021;-90
2022/09/30 12:22:55;;;;;;;2.83;2.63;;;;;;;;;;6214151;23;20417;-91
2022/09/30 12:25:23;;;;;;;3.95;3.75;;;;;;;;;;6214465;23;20029;-89
2022/09/30 12:27:53;;;;;;;3.20;3.00;;;;;;;;;;6214713;23;20083;-90
2022/09/30 12:30:20;;;;;;;2.72;2.58;;;;;;;;;;6214489;23;20024;-91
2022/09/30 12:33:06;;;;;;;3.35;3.05;;;;;;;;;;6213919;23;20028;-88
2022/09/30 12:35:47;;;;;;;3.80;3.50;;;;;;;;;;6214601;23;20032;-90
2022/09/30 12:38:28;;;;;;;3.42;3.20;;;;;;;;;;6164579;23;20020;-91
2022/09/30 12:41:15;;;;;;;3.67;3.47;;;;;;;;;;6214138;23;20021;-90
2022/09/30 12:44:11;;;;;;;6.50;3.60;;;;;;;;;;6214776;23;20024;-91
2022/09/30 12:46:46;;;;;;;3.03;2.83;;;;;;;;;;6214254;23;20031;-89
2022/09/30 12:49:16;;;;;;;3.55;3.35;;;;;;;;;;6214384;23;20044;-89
2022/09/30 12:51:44;;;;;;;3.85;3.00;;;;;;;;;;6214433;23;20024;-90
2022/09/30 12:54:13;;;;;;;3.60;3.40;;;;;;;;;;6213637;23;20025;-89
2022/09/30 12:56:40;;;;;;;;;;;;;;;;;;6214551;23;20392;-90
2022/09/30 12:59:08;;;;;;;3.05;2.47;;;;;;;;;;6214547;23;19966;-90
2022/09/30 13:01:35;;;;;;;4.32;3.50;;;;;;;;;;6214258;23;20043;-90
2022/09/30 13:04:23;;;;;;;3.13;2.92;;;;;;;;;;6214235;23;20079;-90
2022/09/30 13:07:08;;;;;;;5.32;2.45;;;;;;;;;;6206656;23;20017;-90
2022/09/30 13:09:37;;;;;;;3.13;2.15;;;;;;;;;;6213608;23;20023;-91
2022/09/30 13:12:17;;;;;;;2.88;2.67;;;;;;;;;;6214350;23;20082;-89
2022/09/30 13:14:43;;;;;;;2.55;2.35;;;;;;;;;;6213959;23;20033;-90
2022/09/30 13:17:35;;;;;;;2.30;2.10;;;;;;;;;;6214671;23;20079;-89
2022/09/30 13:20:01;;;;;;;2.60;2.40;;;;;;;;;;6214057;23;20021;-89
2022/09/30 13:22:52;;;;;;;2.65;2.50;;;;;;;;;;6213948;23;20024;-89
2022/09/30 13:25:20;;;;;;;3.30;3.00;;;;;;;;;;6214070;23;20055;-90
2022/09/30 13:27:50;;;;;;;4.70;2.72;;;;;;;;;;6213804;23;20457;-90
2022/09/30 13:30:33;;;;;;;3.88;3.55;;;;;;;;;;6213667;23;20027;-89
2022/09/30 13:33:14;;;;;;;7.63;7.30;;;;;;;;;;6213515;23;20390;-90
2022/09/30 13:35:49;;;;;;;3.90;3.60;;;;;;;;;;6194354;23;20385;-90
2022/09/30 13:38:16;;;;;;;4.72;4.43;;;;;;;;;;6214083;23;20021;-91
2022/09/30 13:40:47;;;;;;;4.75;3.45;;;;;;;;;;6213598;23;20100;-91
2022/09/30 13:43:16;;;;;;;4.25;3.95;;;;;;;;;;6213703;23;20178;-90
2022/09/30 13:45:44;;;;;;;3.10;2.80;;;;;;;;;;6214073;23;20087;-91
2022/09/30 13:48:12;;;;;;;6.43;3.45;;;;;;;;;;6213690;23;20024;-90
2022/09/30 13:50:45;;;;;;;4.22;3.15;;;;;;;;;;6213966;23;20032;-91
2022/09/30 13:53:14;;;;;;;4.65;4.35;;;;;;;;;;6213843;23;20349;-91
2022/09/30 13:55:44;;;;;;;3.28;3.08;;;;;;;;;;6214185;23;20024;-90
2022/09/30 13:58:18;;;;;;;3.80;3.50;;;;;;;;;;6214026;23;20020;-92
2022/09/30 14:00:53;;;;;;;4.43;3.05;;;;;;;;;;6213492;23;20465;-91
2022/09/30 14:03:30;;;;;;;4.50;4.20;;;;;;;;;;6213766;23;20021;-91
2022/09/30 14:06:01;;;;;;;3.88;2.90;;;;;;;;;;6213897;23;20401;-92
2022/09/30 14:08:57;;;;;;;3.35;2.97;;;;;;;;;;6214130;23;20032;-92
2022/09/30 14:11:38;;;;;;;4.78;4.45;;;;;;;;;;6213851;23;20033;-91
2022/09/30 14:14:15;;;;;;;3.17;2.83;;;;;;;;;;6209514;23;20020;-92
2022/09/30 14:16:53;;;;;;;3.50;3.20;;;;;;;;;;6213795;23;20051;-89
2022/09/30 14:19:42;;;;;;;5.38;3.65;;;;;;;;;;6213981;23;20020;-88
2022/09/30 14:22:09;;;;;;;3.75;3.45;;;;;;;;;;6213639;23;20103;-91
2022/09/30 14:24:36;;;;;;;4.57;4.18;;;;;;;;;;6213861;23;20020;-92
2022/09/30 14:27:21;;;;;;;3.38;3.15;;;;;;;;;;6213782;23;20036;-90
2022/09/30 14:29:53;;;;;;;4.70;4.40;;;;;;;;;;6212791;23;20020;-90
2022/09/30 14:32:21;;;;;;;3.88;3.55;;;;;;;;;;6213341;23;20025;-90
2022/09/30 14:34:50;;;;;;;;;;;;;;;;;;6213560;23;20024;-90
2022/09/30 14:37:19;;;;;;;3.40;3.10;;;;;;;;;;6213847;23;19916;-89
2022/09/30 14:39:47;;;;;;;4.13;3.83;;;;;;;;;;6213758;23;20096;-89
2022/09/30 14:42:14;;;;;;;3.17;2.88;;;;;;;;;;6213290;23;20028;-89
2022/09/30 14:44:41;;;;;;;4.00;2.78;;;;;;;;;;6213624;23;20094;-89
2022/09/30 14:47:14;;;;;;;3.40;3.10;;;;;;;;;;6213440;23;20025;-92
2022/09/30 14:49:40;;;;;;;8.77;8.18;;;;;;;;;;6213464;23;20412;-92
2022/09/30 14:52:27;;;;;;;5.40;3.13;;;;;;;;;;6213505;23;20452;-89
2022/09/30 14:54:53;;;;;;;3.28;2.85;;;;;;;;;;6213402;23;20095;-90
2022/09/30 14:57:20;;;;;;;3.35;3.05;;;;;;;;;;6213962;23;20100;-89
2022/09/30 14:59:47;;;;;;;4.63;4.32;;;;;;;;;;6213637;23;20472;-88
2022/09/30 15:02:19;;;;;;;4.13;3.72;;;;;;;;;;6213562;23;20025;-89